createdAt,value
2023-03-26T00:02:29.847Z,16.49
2023-03-26T00:05:32.432Z,16.42
2023-03-26T00:08:36.028Z,16.57
2023-03-26T00:11:38.438Z,16.38
2023-03-26T00:14:41.479Z,16.44
2023-03-26T00:17:46.457Z,16.36
2023-03-26T00:20:48.894Z,16.52
2023-03-26T00:23:53.656Z,16.40
2023-03-26T00:26:55.997Z,16.50
2023-03-26T00:29:59.801Z,16.47
2023-03-26T00:33:02.799Z,16.48
2023-03-26T00:36:09.886Z,16.49
2023-03-26T00:39:14.161Z,16.32
2023-03-26T00:42:16.541Z,16.46
2023-03-26T00:45:21.412Z,16.42
2023-03-26T00:48:34.325Z,16.45
2023-03-26T00:51:44.460Z,16.41
2023-03-26T00:54:48.387Z,16.42
2023-03-26T00:57:50.882Z,16.43
2023-03-26T01:00:59.087Z,16.43
2023-03-26T01:04:27.562Z,16.42
2023-03-26T01:07:31.518Z,16.44
2023-03-26T01:10:38.732Z,16.41
2023-03-26T01:13:45.127Z,16.31
2023-03-26T01:16:52.316Z,16.40
2023-03-26T01:20:19.938Z,16.40
2023-03-26T01:23:24.050Z,16.32
2023-03-26T01:27:00.982Z,16.36
2023-03-26T01:30:11.076Z,16.35
2023-03-26T01:33:44.090Z,16.27
2023-03-26T01:37:13.377Z,16.35
2023-03-26T01:40:26.743Z,16.32
2023-03-26T01:43:51.323Z,16.32
2023-03-26T01:46:54.108Z,16.31
2023-03-26T01:49:56.564Z,16.22
2023-03-26T01:52:58.995Z,16.25
2023-03-26T01:56:16.656Z,16.30
2023-03-26T01:59:53.774Z,16.14
2023-03-26T02:03:20.029Z,16.27
2023-03-26T02:06:31.856Z,16.26
2023-03-26T02:09:40.134Z,16.11
2023-03-26T02:12:43.516Z,16.14
2023-03-26T02:16:03.567Z,16.14
2023-03-26T02:19:10.116Z,16.15
2023-03-26T02:22:15.711Z,16.19
2023-03-26T02:25:21.261Z,16.18
2023-03-26T02:28:25.860Z,16.18
2023-03-26T02:31:28.447Z,16.13
2023-03-26T02:34:31.379Z,16.06
2023-03-26T02:37:36.568Z,16.15
2023-03-26T02:40:47.927Z,16.10
2023-03-26T02:43:50.526Z,16.13
2023-03-26T02:46:55.918Z,16.08
2023-03-26T02:50:32.615Z,15.99
2023-03-26T02:53:53.848Z,15.96
2023-03-26T02:57:14.877Z,16.08
2023-03-26T03:00:35.839Z,15.96
2023-03-26T03:04:04.273Z,16.03
2023-03-26T03:07:14.393Z,16.02
2023-03-26T03:10:16.812Z,16.00
2023-03-26T03:13:51.790Z,16.01
2023-03-26T03:17:00.210Z,15.97
2023-03-26T03:20:02.590Z,15.92
2023-03-26T03:23:05.928Z,15.89
2023-03-26T03:26:14.405Z,15.91
2023-03-26T03:29:18.678Z,15.88
2023-03-26T03:32:22.778Z,15.96
2023-03-26T03:35:30.337Z,15.86
2023-03-26T03:38:34.592Z,15.91
2023-03-26T03:41:36.980Z,15.88
2023-03-26T03:44:42.119Z,15.82
2023-03-26T03:47:56.829Z,15.88
2023-03-26T03:51:06.684Z,15.74
2023-03-26T03:54:20.885Z,15.85
2023-03-26T03:57:23.846Z,15.74
2023-03-26T04:00:41.664Z,15.68
2023-03-26T04:04:04.618Z,15.82
2023-03-26T04:07:31.265Z,15.79
2023-03-26T04:10:39.575Z,15.64
2023-03-26T04:13:48.125Z,15.65
2023-03-26T04:17:09.438Z,15.68
2023-03-26T04:20:16.410Z,15.54
2023-03-26T04:23:23.329Z,15.66
2023-03-26T04:26:32.547Z,15.68
2023-03-26T04:29:44.672Z,15.57
2023-03-26T04:36:01.660Z,15.69
2023-03-26T04:39:06.784Z,15.64
2023-03-26T04:42:30.337Z,15.49
2023-03-26T04:45:45.913Z,15.64
2023-03-26T04:48:51.965Z,15.64
2023-03-26T04:51:54.463Z,15.64
2023-03-26T04:55:28.195Z,15.60
2023-03-26T04:58:39.952Z,15.57
2023-03-26T05:01:46.014Z,15.51
2023-03-26T05:04:50.821Z,15.63
2023-03-26T05:07:54.054Z,15.65
2023-03-26T05:10:57.199Z,15.65
2023-03-26T05:14:06.552Z,15.60
2023-03-26T05:17:14.947Z,15.69
2023-03-26T05:20:22.820Z,15.70
2023-03-26T05:23:25.267Z,15.63
2023-03-26T05:26:37.678Z,15.69
2023-03-26T05:29:40.084Z,15.71
2023-03-26T05:32:44.015Z,15.64
2023-03-26T05:35:49.565Z,15.76
2023-03-26T05:38:52.398Z,15.77
2023-03-26T05:42:17.580Z,15.81
2023-03-26T05:45:52.507Z,15.76
2023-03-26T05:49:00.889Z,15.85
2023-03-26T05:52:07.241Z,15.91
2023-03-26T05:55:29.892Z,15.93
2023-03-26T05:58:52.070Z,15.92
2023-03-26T06:02:13.229Z,16.01
2023-03-26T06:05:37.428Z,16.04
2023-03-26T06:09:01.708Z,16.01
2023-03-26T06:12:06.235Z,16.06
2023-03-26T06:15:09.611Z,16.13
2023-03-26T06:18:33.736Z,16.27
2023-03-26T06:21:54.789Z,16.20
2023-03-26T06:25:01.060Z,16.30
2023-03-26T06:28:30.451Z,16.39
2023-03-26T06:31:41.362Z,16.46
2023-03-26T06:34:56.124Z,16.53
2023-03-26T06:37:58.893Z,16.50
2023-03-26T06:41:06.255Z,16.59
2023-03-26T06:44:29.044Z,16.62
2023-03-26T06:47:51.649Z,16.73
2023-03-26T06:51:12.698Z,16.77
2023-03-26T06:54:33.365Z,16.90
2023-03-26T06:57:55.205Z,17.01
2023-03-26T07:01:16.264Z,17.04
2023-03-26T07:04:37.788Z,17.24
2023-03-26T07:08:00.683Z,17.43
2023-03-26T07:11:20.786Z,17.61
2023-03-26T07:15:00.403Z,17.78
2023-03-26T07:18:29.220Z,17.92
2023-03-26T07:21:32.304Z,17.99
2023-03-26T07:24:44.213Z,18.17
2023-03-26T07:28:27.725Z,18.34
2023-03-26T07:32:08.020Z,18.49
2023-03-26T07:35:44.746Z,18.59
2023-03-26T07:39:26.125Z,18.63
2023-03-26T07:43:27.624Z,18.76
2023-03-26T07:46:37.246Z,18.80
2023-03-26T07:49:51.825Z,18.65
2023-03-26T07:53:17.738Z,18.54
2023-03-26T07:56:49.449Z,18.50
2023-03-26T08:00:31.099Z,18.41
2023-03-26T08:03:57.624Z,18.37
2023-03-26T08:07:52.861Z,18.30
2023-03-26T08:11:53.708Z,18.36
2023-03-26T08:15:32.876Z,18.31
2023-03-26T08:18:35.710Z,18.29
2023-03-26T08:22:00.012Z,18.28
2023-03-26T08:25:29.730Z,18.26
2023-03-26T08:28:40.587Z,18.22
2023-03-26T08:31:44.615Z,18.14
2023-03-26T08:34:47.135Z,18.22
2023-03-26T08:37:49.728Z,18.15
2023-03-26T08:41:07.350Z,18.21
2023-03-26T08:44:09.991Z,18.20
2023-03-26T08:47:27.538Z,18.17
2023-03-26T08:50:56.760Z,18.17
2023-03-26T08:54:31.664Z,18.15
2023-03-26T08:57:39.864Z,18.14
2023-03-26T09:01:07.131Z,18.16
2023-03-26T09:04:21.340Z,18.13
2023-03-26T09:07:38.997Z,18.13
2023-03-26T09:11:03.902Z,18.13
2023-03-26T09:14:24.470Z,18.11
2023-03-26T09:17:58.125Z,18.13
2023-03-26T09:21:25.797Z,18.12
2023-03-26T09:24:51.527Z,18.14
2023-03-26T09:28:21.947Z,18.11
2023-03-26T09:31:49.173Z,18.10
2023-03-26T09:35:03.799Z,18.10
2023-03-26T09:38:37.065Z,18.11
2023-03-26T09:41:49.934Z,18.03
2023-03-26T09:45:21.507Z,18.10
2023-03-26T09:48:45.910Z,18.11
2023-03-26T09:51:56.024Z,18.03
2023-03-26T09:55:04.064Z,18.09
2023-03-26T09:58:27.088Z,18.05
2023-03-26T10:01:44.831Z,18.07
2023-03-26T10:05:10.285Z,18.07
2023-03-26T10:08:32.329Z,18.04
2023-03-26T10:11:41.189Z,18.05
2023-03-26T10:15:00.937Z,18.04
2023-03-26T10:18:27.488Z,18.01
2023-03-26T10:22:10.616Z,17.98
2023-03-26T10:25:41.067Z,17.94
2023-03-26T10:29:03.641Z,17.95
2023-03-26T10:32:21.942Z,17.95
2023-03-26T10:35:27.349Z,17.93
2023-03-26T10:39:02.104Z,17.90
2023-03-26T10:42:30.818Z,17.87
2023-03-26T10:46:14.472Z,17.89
2023-03-26T10:49:26.008Z,17.88
2023-03-26T10:53:14.722Z,17.88
2023-03-26T10:56:27.806Z,17.87
2023-03-26T10:59:30.718Z,17.78
2023-03-26T11:02:41.072Z,17.84
2023-03-26T11:05:51.251Z,17.83
2023-03-26T11:09:12.404Z,17.83
2023-03-26T11:12:26.305Z,17.80
2023-03-26T11:15:46.868Z,17.73
2023-03-26T11:19:00.011Z,17.77
2023-03-26T11:22:27.583Z,17.69
2023-03-26T11:26:07.126Z,17.77
2023-03-26T11:29:32.145Z,17.76
2023-03-26T11:32:52.092Z,17.68
2023-03-26T11:35:58.074Z,17.69
2023-03-26T11:39:01.796Z,17.73
2023-03-26T11:42:11.194Z,17.72
2023-03-26T11:45:24.308Z,17.72
2023-03-26T11:48:34.206Z,17.72
2023-03-26T11:51:38.457Z,17.70
2023-03-26T11:54:40.863Z,17.72
2023-03-26T11:57:50.515Z,17.72
2023-03-26T12:00:54.361Z,17.63
2023-03-26T12:04:13.640Z,17.71
2023-03-26T12:07:21.139Z,17.70
2023-03-26T12:10:25.001Z,17.71
2023-03-26T12:13:42.006Z,17.64
2023-03-26T12:17:02.661Z,17.72
2023-03-26T12:20:25.082Z,17.72
2023-03-26T12:24:05.208Z,17.66
2023-03-26T12:27:50.928Z,17.71
2023-03-26T12:31:01.497Z,17.62
2023-03-26T12:34:07.782Z,17.71
2023-03-26T12:37:34.422Z,17.73
2023-03-26T12:40:39.366Z,17.69
2023-03-26T12:44:56.465Z,17.68
2023-03-26T12:47:58.585Z,17.74
2023-03-26T12:51:06.494Z,17.71
2023-03-26T12:54:23.770Z,17.74
2023-03-26T12:57:39.123Z,17.75
2023-03-26T13:01:20.045Z,17.73
2023-03-26T13:04:34.542Z,17.76
2023-03-26T13:08:01.900Z,17.75
2023-03-26T13:11:18.970Z,17.73
2023-03-26T13:14:21.664Z,17.73
2023-03-26T13:18:04.448Z,17.67
2023-03-26T13:21:31.872Z,17.74
2023-03-26T13:24:46.724Z,17.76
2023-03-26T13:28:10.959Z,17.73
2023-03-26T13:31:24.854Z,17.68
2023-03-26T13:34:50.458Z,17.72
2023-03-26T13:38:06.386Z,17.73
2023-03-26T13:41:45.820Z,17.64
2023-03-26T13:45:04.835Z,17.64
2023-03-26T13:48:16.909Z,17.69
2023-03-26T13:51:31.956Z,17.67
2023-03-26T13:54:47.235Z,17.70
2023-03-26T13:58:02.182Z,17.72
2023-03-26T14:01:11.126Z,17.63
2023-03-26T14:04:21.907Z,17.54
2023-03-26T14:07:28.310Z,17.62
2023-03-26T14:10:37.477Z,17.63
2023-03-26T14:13:52.057Z,17.67
2023-03-26T14:16:58.541Z,17.68
2023-03-26T14:20:24.158Z,17.66
2023-03-26T14:23:48.432Z,17.67
2023-03-26T14:27:08.961Z,17.66
2023-03-26T14:30:17.830Z,17.67
2023-03-26T14:33:45.000Z,17.68
2023-03-26T14:36:53.043Z,17.67
2023-03-26T14:40:16.883Z,17.66
2023-03-26T14:43:48.180Z,17.66
2023-03-26T14:46:53.390Z,17.64
2023-03-26T14:50:13.986Z,17.64
2023-03-26T14:53:25.769Z,17.60
2023-03-26T14:56:44.670Z,17.58
2023-03-26T15:00:05.983Z,17.61
2023-03-26T15:03:11.068Z,17.61
2023-03-26T15:06:25.338Z,17.60
2023-03-26T15:09:49.696Z,17.58
2023-03-26T15:13:16.504Z,17.59
2023-03-26T15:16:21.706Z,17.57
2023-03-26T15:19:36.773Z,17.57
2023-03-26T15:23:10.257Z,17.58
2023-03-26T15:26:37.125Z,17.55
2023-03-26T15:29:57.817Z,17.57
2023-03-26T15:33:36.582Z,17.52
2023-03-26T15:37:05.650Z,17.56
2023-03-26T15:40:26.105Z,17.56
2023-03-26T15:44:23.452Z,17.52
2023-03-26T15:47:49.082Z,17.53
2023-03-26T15:51:15.505Z,17.54
2023-03-26T15:54:54.114Z,17.49
2023-03-26T15:58:04.841Z,17.49
2023-03-26T16:01:37.273Z,17.52
2023-03-26T16:05:03.344Z,17.51
2023-03-26T16:08:18.962Z,17.53
2023-03-26T16:11:42.918Z,17.47
2023-03-26T16:14:48.116Z,17.47
2023-03-26T16:18:19.180Z,17.46
2023-03-26T16:21:36.779Z,17.45
2023-03-26T16:24:46.683Z,17.46
2023-03-26T16:28:06.506Z,17.41
2023-03-26T16:31:37.336Z,17.39
2023-03-26T16:34:48.256Z,17.36
2023-03-26T16:38:05.833Z,17.33
2023-03-26T16:41:19.692Z,17.31
2023-03-26T16:44:33.032Z,17.30
2023-03-26T16:47:43.224Z,17.28
2023-03-26T16:51:07.276Z,17.25
2023-03-26T16:54:24.196Z,17.20
2023-03-26T16:57:28.837Z,17.22
2023-03-26T17:01:27.436Z,17.20
2023-03-26T17:04:30.875Z,17.16
2023-03-26T17:07:38.489Z,17.14
2023-03-26T17:10:58.556Z,17.06
2023-03-26T17:14:16.162Z,17.10
2023-03-26T17:17:40.869Z,17.10
2023-03-26T17:21:08.875Z,17.00
2023-03-26T17:24:30.050Z,17.05
2023-03-26T17:28:29.462Z,17.03
2023-03-26T17:31:51.129Z,17.01
2023-03-26T17:35:02.317Z,17.01
2023-03-26T17:38:24.932Z,16.93
2023-03-26T17:41:55.418Z,16.97
2023-03-26T17:45:03.833Z,16.94
2023-03-26T17:48:21.847Z,16.95
2023-03-26T17:51:50.565Z,16.92
2023-03-26T17:54:55.861Z,16.90
2023-03-26T17:58:00.560Z,16.90
2023-03-26T18:01:07.565Z,16.90
2023-03-26T18:04:20.296Z,16.80
2023-03-26T18:07:26.104Z,16.85
2023-03-26T18:10:49.913Z,16.83
2023-03-26T18:14:29.090Z,16.82
2023-03-26T18:17:32.499Z,16.71
2023-03-26T18:20:37.202Z,16.79
2023-03-26T18:23:45.336Z,16.76
2023-03-26T18:26:54.254Z,16.73
2023-03-26T18:29:56.941Z,16.77
2023-03-26T18:33:13.755Z,16.69
2023-03-26T18:36:19.756Z,16.75
2023-03-26T18:39:22.317Z,16.71
2023-03-26T18:42:26.227Z,16.69
2023-03-26T18:45:34.049Z,16.72
2023-03-26T18:48:36.653Z,16.63
2023-03-26T18:51:50.168Z,16.64
2023-03-26T18:54:59.964Z,16.61
2023-03-26T18:58:19.370Z,16.70
2023-03-26T19:01:25.705Z,16.65
2023-03-26T19:04:31.381Z,16.67
2023-03-26T19:07:35.994Z,16.67
2023-03-26T19:10:38.783Z,16.44
2023-03-26T19:13:44.259Z,16.62
2023-03-26T19:16:50.801Z,16.58
2023-03-26T19:19:54.955Z,16.57
2023-03-26T19:23:00.341Z,16.59
2023-03-26T19:26:04.733Z,16.62
2023-03-26T19:29:07.448Z,16.56
2023-03-26T19:32:19.356Z,16.60
2023-03-26T19:35:23.487Z,16.60
2023-03-26T19:38:28.604Z,16.60
2023-03-26T19:41:35.258Z,16.59
2023-03-26T19:44:39.715Z,16.51
2023-03-26T19:51:06.538Z,16.51
2023-03-26T19:51:18.448Z,16.53
2023-03-26T19:54:15.888Z,16.50
2023-03-26T19:57:18.740Z,16.40
2023-03-26T20:00:21.959Z,16.39
2023-03-26T20:03:30.425Z,16.55
2023-03-26T20:06:43.644Z,16.55
2023-03-26T20:09:46.705Z,16.44
2023-03-26T20:12:54.844Z,16.53
2023-03-26T20:16:05.250Z,16.42
2023-03-26T20:19:08.864Z,16.51
2023-03-26T20:22:16.911Z,16.51
2023-03-26T20:25:26.098Z,16.50
2023-03-26T20:28:35.392Z,16.43
2023-03-26T20:31:45.956Z,16.46
2023-03-26T20:34:52.398Z,16.48
2023-03-26T20:37:54.864Z,16.48
2023-03-26T20:40:57.765Z,16.38
2023-03-26T20:44:00.511Z,16.41
2023-03-26T20:47:03.220Z,16.47
2023-03-26T20:50:06.490Z,16.40
2023-03-26T20:53:14.386Z,16.36
2023-03-26T20:56:19.108Z,16.44
2023-03-26T20:59:26.440Z,16.43
2023-03-26T21:02:29.346Z,16.48
2023-03-26T21:05:32.406Z,16.49
2023-03-26T21:08:34.977Z,16.39
2023-03-26T21:11:43.687Z,16.49
2023-03-26T21:14:46.740Z,16.42
2023-03-26T21:17:51.334Z,16.48
2023-03-26T21:21:14.113Z,16.47
2023-03-26T21:24:57.233Z,16.47
2023-03-26T21:28:17.357Z,16.47
2023-03-26T21:31:22.354Z,16.41
2023-03-26T21:34:25.086Z,16.45
2023-03-26T21:37:27.771Z,16.44
2023-03-26T21:40:30.806Z,16.43
2023-03-26T21:43:33.134Z,16.33
2023-03-26T21:46:36.183Z,16.39
2023-03-26T21:49:38.764Z,16.40
2023-03-26T21:52:47.269Z,16.32
2023-03-26T21:56:01.021Z,16.27
2023-03-26T21:59:18.512Z,16.32
2023-03-26T22:02:29.902Z,16.36
2023-03-26T22:05:55.673Z,16.36
2023-03-26T22:08:59.564Z,16.27
2023-03-26T22:12:02.131Z,16.34
2023-03-26T22:15:04.842Z,16.28
2023-03-26T22:18:07.429Z,16.26
2023-03-26T22:21:10.042Z,16.19
2023-03-26T22:24:12.413Z,16.20
2023-03-26T22:27:16.121Z,16.15
2023-03-26T22:30:20.707Z,16.26
2023-03-26T22:33:23.230Z,16.20
2023-03-26T22:36:25.673Z,16.28
2023-03-26T22:39:27.977Z,16.15
2023-03-26T22:42:30.354Z,16.13
2023-03-26T22:45:32.679Z,16.23
2023-03-26T22:48:35.051Z,16.27
2023-03-26T22:51:37.490Z,16.11
2023-03-26T22:54:39.869Z,16.25
2023-03-26T22:57:42.882Z,16.17
2023-03-26T23:00:46.201Z,16.24
2023-03-26T23:03:49.088Z,16.23
2023-03-26T23:06:51.531Z,16.15
2023-03-26T23:09:53.884Z,16.22
2023-03-26T23:12:56.436Z,16.13
2023-03-26T23:15:59.455Z,16.20
2023-03-26T23:19:01.831Z,16.10
2023-03-26T23:22:04.195Z,16.18
2023-03-26T23:25:07.471Z,16.08
2023-03-26T23:28:10.300Z,16.14
2023-03-26T23:31:13.207Z,16.07
2023-03-26T23:34:17.087Z,16.06
2023-03-26T23:37:23.193Z,16.14
2023-03-26T23:40:25.799Z,16.07
2023-03-26T23:43:28.772Z,15.99
2023-03-26T23:46:33.940Z,16.03
2023-03-26T23:49:39.234Z,16.11
2023-03-26T23:52:41.653Z,16.10
2023-03-26T23:55:48.229Z,16.09
2023-03-26T23:58:50.602Z,16.04
